Time;durP1;ratioP1;P1;durP2;ratioP2;P2;SDS_P1;SDS_P2;PMS_P1;PMS_P2;Temp;Humidity;BMP_temperature;BMP_pressure;BME280_temperature;BME280_humidity;BME280_pressure;Samples;Min_cycle;Max_cycle;Signal;HPM_P1;HPM_P2
2024/02/07 00:02:11;;;;;;;3.53;1.45;;;5.90;99.90;;;;;;5073029;28;20260;-71
2024/02/07 00:04:37;;;;;;;4.43;1.52;;;5.90;99.90;;;;;;5073424;28;20230;-71
2024/02/07 00:07:04;;;;;;;1.27;1.10;;;5.90;99.90;;;;;;5072760;28;20209;-72
2024/02/07 00:09:31;;;;;;;3.25;1.85;;;5.90;99.90;;;;;;5072856;28;20203;-72
2024/02/07 00:11:59;;;;;;;2.30;1.77;;;5.90;99.90;;;;;;5072778;28;20230;-71
2024/02/07 00:14:25;;;;;;;3.78;1.42;;;5.90;99.90;;;;;;5073174;28;20663;-71
2024/02/07 00:16:52;;;;;;;1.33;1.23;;;5.80;99.90;;;;;;5072455;28;20210;-71
2024/02/07 00:19:19;;;;;;;2.63;2.42;;;5.90;99.90;;;;;;5072635;28;20214;-72
2024/02/07 00:21:45;;;;;;;1.48;1.10;;;5.80;99.90;;;;;;5072316;28;20210;-72
2024/02/07 00:24:12;;;;;;;2.45;1.67;;;5.80;99.90;;;;;;5072557;28;20305;-72
2024/02/07 00:26:39;;;;;;;2.25;1.60;;;5.80;99.90;;;;;;5072360;28;20229;-71
2024/02/07 00:29:07;;;;;;;1.58;1.48;;;5.70;99.90;;;;;;5072579;28;20197;-72
2024/02/07 00:31:34;;;;;;;2.35;1.50;;;5.70;99.90;;;;;;5072475;28;20215;-72
2024/02/07 00:34:01;;;;;;;1.60;1.50;;;5.70;99.90;;;;;;5072393;28;20231;-72
2024/02/07 00:36:27;;;;;;;2.83;1.13;;;5.70;99.90;;;;;;5072225;28;20205;-71
2024/02/07 00:38:54;;;;;;;2.72;1.13;;;5.70;99.90;;;;;;5072021;28;20210;-71
2024/02/07 00:41:22;;;;;;;2.10;1.65;;;5.70;99.90;;;;;;5072257;28;20236;-71
2024/02/07 00:43:49;;;;;;;1.52;1.42;;;5.70;99.90;;;;;;5071982;28;20228;-71
2024/02/07 00:46:17;;;;;;;2.60;1.55;;;5.70;99.90;;;;;;5072009;28;20210;-72
2024/02/07 00:48:44;;;;;;;1.73;1.30;;;5.70;99.90;;;;;;5072178;28;20210;-72
2024/02/07 00:51:11;;;;;;;2.25;1.55;;;5.70;99.90;;;;;;5072014;28;20206;-71
2024/02/07 00:53:39;;;;;;;2.50;1.52;;;5.60;99.90;;;;;;5072161;28;20234;-71
2024/02/07 00:56:06;;;;;;;2.33;2.03;;;5.60;99.90;;;;;;5071475;28;20221;-71
2024/02/07 00:58:32;;;;;;;2.80;1.67;;;5.60;99.90;;;;;;5072023;28;20676;-71
2024/02/07 01:00:59;;;;;;;2.33;1.55;;;5.60;99.90;;;;;;5071572;28;20222;-71
2024/02/07 01:03:27;;;;;;;2.50;2.00;;;5.60;99.90;;;;;;5071724;28;20235;-71
2024/02/07 01:05:54;;;;;;;2.38;1.70;;;5.60;99.90;;;;;;5071424;28;20215;-71
2024/02/07 01:08:20;;;;;;;2.85;1.85;;;5.60;99.90;;;;;;5071773;28;20218;-71
2024/02/07 01:10:47;;;;;;;1.70;1.60;;;5.70;99.90;;;;;;5071455;28;20568;-71
2024/02/07 01:13:14;;;;;;;1.75;1.23;;;5.70;99.90;;;;;;5071642;28;20714;-71
2024/02/07 01:15:41;;;;;;;2.53;1.70;;;5.70;99.90;;;;;;5058495;28;20208;-71
2024/02/07 01:18:07;;;;;;;2.70;1.70;;;5.70;99.90;;;;;;5071139;28;20211;-71
2024/02/07 01:20:35;;;;;;;2.20;1.83;;;5.70;99.90;;;;;;5071334;28;20219;-71
2024/02/07 01:23:02;;;;;;;3.63;1.67;;;5.70;99.90;;;;;;5071189;28;20711;-71
2024/02/07 01:25:29;;;;;;;1.50;1.33;;;5.70;99.90;;;;;;5071531;28;20606;-71
2024/02/07 01:27:56;;;;;;;2.65;1.50;;;5.80;99.90;;;;;;5067350;28;20213;-71
2024/02/07 01:30:22;;;;;;;3.17;1.75;;;5.80;99.90;;;;;;5071387;28;20202;-71
2024/02/07 01:32:49;;;;;;;1.55;1.23;;;5.80;99.90;;;;;;5071064;28;20227;-71
2024/02/07 01:35:16;;;;;;;1.90;1.60;;;5.90;99.90;;;;;;5071337;28;20211;-71
2024/02/07 01:37:45;;;;;;;1.85;1.75;;;5.90;99.90;;;;;;5071279;28;20207;-72
2024/02/07 01:40:13;;;;;;;4.43;2.17;;;5.90;99.90;;;;;;5058973;28;20218;-72
2024/02/07 01:42:40;;;;;;;2.08;1.65;;;5.90;99.90;;;;;;5070983;28;20236;-72
2024/02/07 01:45:25;;;;;;;2.60;1.60;;;5.90;99.90;;;;;;5070946;28;20209;-72
2024/02/07 01:47:52;;;;;;;1.55;1.45;;;5.90;99.90;;;;;;5070385;28;20202;-72
2024/02/07 01:50:21;;;;;;;3.60;1.95;;;5.90;99.90;;;;;;5070914;28;20202;-72
2024/02/07 01:52:53;;;;;;;3.30;1.52;;;5.90;99.90;;;;;;5070727;28;20228;-72
2024/02/07 01:55:20;;;;;;;1.50;1.25;;;6.00;99.90;;;;;;5070814;28;20867;-72
2024/02/07 01:57:48;;;;;;;2.65;1.65;;;6.00;99.90;;;;;;5070730;28;20204;-71
2024/02/07 02:00:16;;;;;;;1.65;1.55;;;6.00;99.90;;;;;;5065207;28;20215;-72
2024/02/07 02:02:45;;;;;;;2.85;2.08;;;5.90;99.90;;;;;;5070781;28;20225;-72
2024/02/07 02:05:12;;;;;;;1.95;1.80;;;6.00;99.90;;;;;;5070621;28;20218;-72
2024/02/07 02:07:39;;;;;;;2.00;1.80;;;6.00;99.90;;;;;;5070451;28;20677;-72
2024/02/07 02:10:10;;;;;;;4.05;1.80;;;6.00;99.90;;;;;;5070794;28;20214;-72
2024/02/07 02:12:37;;;;;;;1.80;1.20;;;6.00;99.90;;;;;;5070658;28;20256;-72
2024/02/07 02:15:06;;;;;;;2.60;1.70;;;6.00;99.90;;;;;;5070528;28;20659;-72
2024/02/07 02:17:32;;;;;;;3.40;1.95;;;6.00;99.90;;;;;;5070655;28;20205;-72
2024/02/07 02:19:59;;;;;;;1.80;1.70;;;6.00;99.90;;;;;;5070501;28;20206;-72
2024/02/07 02:22:47;;;;;;;2.42;2.22;;;6.10;99.90;;;;;;5070433;28;20235;-72
2024/02/07 02:25:49;;;;;;;2.47;2.05;;;6.00;99.90;;;;;;5070421;28;20614;-72
2024/02/07 02:28:27;;;;;;;3.20;1.45;;;6.00;99.90;;;;;;5026019;28;20211;-72
2024/02/07 02:30:59;;;;;;;3.30;1.73;;;6.00;99.90;;;;;;5070640;28;20206;-72
2024/02/07 02:33:29;;;;;;;2.47;1.30;;;6.00;99.90;;;;;;5070682;28;20794;-73
2024/02/07 02:35:58;;;;;;;2.55;1.85;;;6.00;99.90;;;;;;5064841;28;20211;-72
2024/02/07 02:38:25;;;;;;;1.67;1.58;;;6.00;99.90;;;;;;5055715;28;20689;-72
2024/02/07 02:40:54;;;;;;;1.55;1.38;;;6.00;99.90;;;;;;5069384;28;20753;-72
2024/02/07 02:43:22;;;;;;;2.30;1.58;;;6.00;99.90;;;;;;5070449;28;20310;-72
2024/02/07 02:45:49;;;;;;;1.30;1.20;;;6.00;99.90;;;;;;5070399;28;20210;-72
2024/02/07 02:48:17;;;;;;;3.78;1.95;;;6.00;99.90;;;;;;5070553;28;20664;-72
2024/02/07 02:50:45;;;;;;;1.60;1.50;;;6.00;99.90;;;;;;5070583;28;20228;-72
2024/02/07 02:53:12;;;;;;;1.73;1.60;;;6.00;99.90;;;;;;5070249;28;20227;-72
2024/02/07 02:55:39;;;;;;;2.40;1.67;;;6.10;99.90;;;;;;5070428;28;20204;-72
2024/02/07 02:58:06;;;;;;;2.03;1.83;;;6.10;99.90;;;;;;5070657;28;20213;-72
2024/02/07 03:00:33;;;;;;;2.45;1.63;;;6.10;99.90;;;;;;5074255;28;20218;-72
2024/02/07 03:03:02;;;;;;;4.32;1.67;;;6.10;99.90;;;;;;5074096;28;20226;-72
2024/02/07 03:05:45;;;;;;;5.05;1.80;;;6.10;99.90;;;;;;5074500;28;20207;-72
2024/02/07 03:08:21;;;;;;;2.13;1.55;;;6.10;99.90;;;;;;5067936;28;20212;-72
2024/02/07 03:10:50;;;;;;;2.70;1.80;;;6.10;99.90;;;;;;5074080;28;20271;-72
2024/02/07 03:13:18;;;;;;;2.88;2.17;;;6.20;99.90;;;;;;5073784;28;20231;-72
2024/02/07 03:15:45;;;;;;;2.40;1.48;;;6.10;99.90;;;;;;5074012;28;20211;-71
2024/02/07 03:18:12;;;;;;;2.65;1.60;;;6.10;99.90;;;;;;5073760;28;20202;-72
2024/02/07 03:20:41;;;;;;;3.17;1.90;;;6.20;99.90;;;;;;5073837;28;20227;-72
2024/02/07 03:23:08;;;;;;;2.10;1.80;;;6.20;99.90;;;;;;5073282;28;20728;-72
2024/02/07 03:25:36;;;;;;;1.95;1.58;;;6.20;99.90;;;;;;5073606;28;20202;-72
2024/02/07 03:28:04;;;;;;;2.72;2.00;;;6.20;99.90;;;;;;5073509;28;20591;-72
2024/02/07 03:30:31;;;;;;;1.85;1.60;;;6.30;99.90;;;;;;5073740;28;20211;-72
2024/02/07 03:32:58;;;;;;;2.50;1.70;;;6.30;99.90;;;;;;5073476;28;20251;-72
2024/02/07 03:35:25;;;;;;;1.70;1.60;;;6.30;99.90;;;;;;5073733;28;20213;-72
2024/02/07 03:37:55;;;;;;;2.17;1.80;;;6.30;99.90;;;;;;5073560;28;20220;-72
2024/02/07 03:40:22;;;;;;;2.67;1.45;;;6.40;99.90;;;;;;5068560;28;20256;-72
2024/02/07 03:42:48;;;;;;;2.83;2.13;;;6.30;99.90;;;;;;5073461;28;20230;-72
2024/02/07 03:45:16;;;;;;;2.85;1.92;;;6.40;99.90;;;;;;5073515;28;20205;-72
2024/02/07 03:47:43;;;;;;;4.60;1.70;;;6.40;99.90;;;;;;5073301;28;20240;-72
2024/02/07 03:50:11;;;;;;;2.65;1.70;;;6.40;99.90;;;;;;5073174;28;20212;-72
2024/02/07 03:52:39;;;;;;;3.80;1.98;;;6.40;99.90;;;;;;5073224;28;20593;-71
2024/02/07 03:55:08;;;;;;;4.50;2.25;;;6.40;99.90;;;;;;5073116;28;20206;-72
2024/02/07 03:57:35;;;;;;;2.28;1.70;;;6.40;99.90;;;;;;5073094;28;20682;-72
2024/02/07 04:00:07;;;;;;;1.70;1.60;;;6.40;99.90;;;;;;5073061;28;20207;-72
2024/02/07 04:02:38;;;;;;;2.50;2.25;;;6.40;99.90;;;;;;5073126;28;20648;-72
2024/02/07 04:05:05;;;;;;;3.05;1.40;;;6.40;99.90;;;;;;5073083;28;20217;-72
2024/02/07 04:07:33;;;;;;;2.47;1.90;;;6.40;99.90;;;;;;5072699;28;20262;-71
2024/02/07 04:09:59;;;;;;;2.05;1.85;;;6.40;99.90;;;;;;5072714;28;20252;-71
2024/02/07 05:17:19;;;;;;;1.80;1.30;;;7.20;99.90;;;;;;5050767;28;20199;-70
2024/02/07 05:19:46;;;;;;;2.13;1.52;;;7.20;99.90;;;;;;5051298;28;20197;-70
2024/02/07 05:22:12;;;;;;;1.33;1.20;;;7.20;99.90;;;;;;5049610;28;20247;-70
2024/02/07 05:24:40;;;;;;;1.52;1.30;;;7.10;99.90;;;;;;5057282;28;20208;-70
2024/02/07 05:27:09;;;;;;;1.92;1.48;;;7.10;99.90;;;;;;5071358;28;20582;-70
2024/02/07 05:29:36;;;;;;;1.90;1.70;;;7.10;99.90;;;;;;5068747;28;20747;-71
2024/02/07 05:32:03;;;;;;;2.00;1.80;;;7.10;99.90;;;;;;5071683;28;20199;-70
2024/02/07 05:34:31;;;;;;;2.30;1.55;;;7.20;99.90;;;;;;5070848;28;20208;-70
2024/02/07 05:36:58;;;;;;;3.15;1.60;;;7.10;99.90;;;;;;5061772;28;20269;-70
2024/02/07 05:39:26;;;;;;;2.15;1.92;;;7.20;99.90;;;;;;5071046;28;20212;-71
2024/02/07 05:41:52;;;;;;;1.48;1.35;;;7.20;99.90;;;;;;5071248;28;20759;-70
2024/02/07 05:44:19;;;;;;;2.10;1.50;;;7.20;99.90;;;;;;5071154;28;20227;-70
2024/02/07 05:46:46;;;;;;;2.35;1.80;;;7.10;99.90;;;;;;5070795;28;20204;-74
2024/02/07 05:49:14;;;;;;;5.28;1.83;;;7.10;99.90;;;;;;5071082;28;20238;-69
2024/02/07 05:51:42;;;;;;;5.35;1.77;;;7.20;99.90;;;;;;5070900;28;20201;-69
2024/02/07 05:54:09;;;;;;;2.42;1.60;;;7.10;99.90;;;;;;5071356;28;20228;-69
2024/02/07 05:56:36;;;;;;;2.03;1.83;;;7.10;99.90;;;;;;5065127;28;20212;-69
2024/02/07 05:59:03;;;;;;;1.80;1.60;;;7.20;99.90;;;;;;5071021;28;20199;-68
2024/02/07 06:01:30;;;;;;;2.25;1.55;;;7.20;99.90;;;;;;5070598;28;20235;-69
2024/02/07 06:03:56;;;;;;;3.00;1.70;;;7.20;99.90;;;;;;5071019;28;20450;-70
2024/02/07 06:06:29;;;;;;;1.33;1.17;;;7.20;99.90;;;;;;5070383;28;20212;-70
2024/02/07 06:08:58;;;;;;;1.63;1.20;;;7.20;99.90;;;;;;5060078;28;20272;-69
2024/02/07 06:11:31;;;;;;;3.08;1.38;;;7.20;99.90;;;;;;5070781;28;20310;-69
2024/02/07 06:13:58;;;;;;;1.88;1.40;;;7.20;99.90;;;;;;5060452;28;20586;-69
2024/02/07 06:16:25;;;;;;;4.85;1.95;;;7.20;99.90;;;;;;5070232;28;20208;-69
2024/02/07 06:18:51;;;;;;;1.60;1.50;;;7.20;99.90;;;;;;5069221;28;20212;-74
2024/02/07 06:21:19;;;;;;;3.13;2.15;;;7.20;99.90;;;;;;5070487;28;20230;-74
2024/02/07 06:23:47;;;;;;;1.25;1.15;;;7.20;99.90;;;;;;5070796;28;20284;-74
2024/02/07 06:26:15;;;;;;;2.92;1.90;;;7.20;99.90;;;;;;5069972;28;20212;-75
2024/02/07 06:28:42;;;;;;;3.08;2.40;;;7.20;99.90;;;;;;5070586;28;20299;-75
2024/02/07 06:31:08;;;;;;;3.58;1.70;;;7.20;99.90;;;;;;5068391;28;20302;-74
2024/02/07 06:33:35;;;;;;;2.35;2.15;;;7.20;99.90;;;;;;5073613;28;20613;-74
2024/02/07 06:36:02;;;;;;;1.88;1.55;;;7.20;99.90;;;;;;5074803;28;20203;-74
2024/02/07 06:38:28;;;;;;;2.70;1.60;;;7.30;99.90;;;;;;5074978;28;20212;-73
2024/02/07 06:40:55;;;;;;;2.47;2.10;;;7.30;99.90;;;;;;5074694;28;20223;-74
2024/02/07 06:43:23;;;;;;;2.45;2.10;;;7.30;99.90;;;;;;5074621;28;20234;-75
2024/02/07 06:45:50;;;;;;;3.15;1.90;;;7.30;99.90;;;;;;5074524;28;20583;-75
2024/02/07 06:48:18;;;;;;;3.35;2.20;;;7.30;99.90;;;;;;5074241;28;20218;-76
2024/02/07 06:50:45;;;;;;;4.50;1.95;;;7.40;99.90;;;;;;5071081;28;20210;-76
2024/02/07 06:53:12;;;;;;;2.25;2.00;;;7.40;99.90;;;;;;5064879;28;20231;-77
2024/02/07 06:55:39;;;;;;;1.60;1.50;;;7.40;99.90;;;;;;5057695;28;20197;-76
2024/02/07 06:58:06;;;;;;;1.63;1.52;;;7.40;99.90;;;;;;5057204;28;20212;-76
2024/02/07 07:00:34;;;;;;;1.55;1.45;;;7.40;99.90;;;;;;5062344;28;20214;-76
2024/02/07 07:03:00;;;;;;;2.60;2.40;;;7.50;99.90;;;;;;5074282;28;20319;-75
2024/02/07 07:05:27;;;;;;;1.83;1.67;;;7.60;99.90;;;;;;5073938;28;20219;-75
2024/02/07 07:07:54;;;;;;;4.13;2.30;;;7.50;99.90;;;;;;5068484;28;20664;-75
2024/02/07 07:10:21;;;;;;;2.75;1.95;;;7.50;99.90;;;;;;5055985;28;20749;-77
2024/02/07 07:12:47;;;;;;;2.70;1.88;;;7.50;99.90;;;;;;5075348;28;20227;-77
2024/02/07 07:15:14;;;;;;;2.60;2.05;;;7.50;99.90;;;;;;5078630;28;20216;-76
2024/02/07 07:17:42;;;;;;;6.07;2.88;;;7.60;99.90;;;;;;5073292;28;20204;-76
2024/02/07 07:20:09;;;;;;;5.00;2.15;;;7.60;99.90;;;;;;5074487;28;20588;-76
2024/02/07 07:22:36;;;;;;;2.20;2.00;;;7.60;99.90;;;;;;5073723;28;20228;-76
2024/02/07 07:25:03;;;;;;;1.60;1.50;;;7.60;99.90;;;;;;5074435;28;20208;-76
2024/02/07 07:27:30;;;;;;;3.83;2.13;;;7.60;99.90;;;;;;5071313;28;20215;-77
2024/02/07 07:29:57;;;;;;;1.98;1.63;;;7.60;99.90;;;;;;5061673;28;20231;-75
2024/02/07 07:32:24;;;;;;;2.85;2.00;;;7.60;99.90;;;;;;5060899;28;20236;-76
2024/02/07 07:34:52;;;;;;;2.60;2.08;;;7.70;99.90;;;;;;5068639;28;20200;-76
2024/02/07 07:37:19;;;;;;;2.22;1.75;;;7.70;99.90;;;;;;5068181;28;20207;-78
2024/02/07 07:39:45;;;;;;;2.60;2.17;;;7.70;99.90;;;;;;5072271;28;20211;-76
2024/02/07 07:42:12;;;;;;;2.08;1.67;;;7.70;99.90;;;;;;5055351;28;20228;-77
2024/02/07 07:44:40;;;;;;;2.95;1.90;;;7.70;99.90;;;;;;5065051;28;20212;-77
2024/02/07 07:47:07;;;;;;;1.92;1.83;;;7.80;99.90;;;;;;5072862;28;20213;-76
2024/02/07 07:49:34;;;;;;;2.13;1.55;;;7.90;99.90;;;;;;5081475;28;20219;-81
2024/02/07 07:52:02;;;;;;;2.00;1.90;;;7.90;99.90;;;;;;5073118;28;20200;-76
2024/02/07 07:54:29;;;;;;;2.00;1.45;;;7.90;99.90;;;;;;5083311;28;20214;-79
2024/02/07 07:56:57;;;;;;;2.95;2.20;;;7.90;99.90;;;;;;5058026;28;20211;-77
2024/02/07 07:59:24;;;;;;;2.33;1.92;;;8.00;99.90;;;;;;5075853;28;20236;-78
2024/02/07 08:01:57;;;;;;;4.30;2.00;;;8.00;99.90;;;;;;5078499;28;20490;-78
2024/02/07 08:04:24;;;;;;;4.30;1.83;;;8.00;99.90;;;;;;5079365;28;20755;-76
2024/02/07 08:06:51;;;;;;;4.55;1.80;;;8.00;99.90;;;;;;5077354;28;20570;-77
2024/02/07 08:09:19;;;;;;;5.00;2.13;;;8.00;99.90;;;;;;5075533;28;20207;-80
2024/02/07 08:11:48;;;;;;;1.77;1.40;;;8.10;99.90;;;;;;5075983;28;20288;-81
2024/02/07 08:14:20;;;;;;;3.95;1.85;;;8.10;99.90;;;;;;5075575;28;20220;-81
2024/02/07 08:16:48;;;;;;;2.15;1.50;;;8.10;99.90;;;;;;5074882;28;20213;-81
2024/02/07 08:19:15;;;;;;;3.15;1.48;;;8.10;99.90;;;;;;5076397;28;20215;-79
2024/02/07 08:21:42;;;;;;;2.58;2.30;;;8.10;99.90;;;;;;5051853;28;20647;-76
2024/02/07 08:24:09;;;;;;;2.17;1.70;;;8.10;99.90;;;;;;5064985;28;20260;-75
2024/02/07 08:26:37;;;;;;;4.75;2.00;;;8.20;99.90;;;;;;5068435;28;20288;-75
2024/02/07 08:29:04;;;;;;;3.42;1.83;;;8.20;99.90;;;;;;5070654;28;20204;-77
2024/02/07 08:31:31;;;;;;;3.47;1.73;;;8.20;99.90;;;;;;5069012;28;20216;-76
2024/02/07 08:33:58;;;;;;;3.30;1.60;;;8.20;99.90;;;;;;5056348;28;20665;-76
2024/02/07 08:36:25;;;;;;;2.45;1.90;;;8.20;99.90;;;;;;5070304;28;20646;-75
2024/02/07 08:38:51;;;;;;;3.67;1.83;;;8.20;99.90;;;;;;5069808;28;20301;-77
2024/02/07 08:41:19;;;;;;;2.15;1.88;;;8.30;99.90;;;;;;5068633;28;20682;-76
2024/02/07 08:43:48;;;;;;;2.45;1.90;;;8.30;99.90;;;;;;5065702;28;20693;-76
2024/02/07 08:46:14;;;;;;;2.55;1.63;;;8.30;99.90;;;;;;5071261;28;20205;-77
2024/02/07 08:48:43;;;;;;;2.65;1.95;;;8.30;99.90;;;;;;5070622;28;20213;-77
2024/02/07 08:51:10;;;;;;;1.88;1.63;;;8.30;99.90;;;;;;5072042;28;20226;-75
2024/02/07 08:53:37;;;;;;;1.70;1.52;;;8.30;99.90;;;;;;5069424;28;20229;-76
2024/02/07 08:56:04;;;;;;;3.58;1.85;;;8.30;99.90;;;;;;5070143;28;20243;-75
2024/02/07 08:58:32;;;;;;;1.65;1.35;;;8.30;99.90;;;;;;5069846;28;20216;-75
2024/02/07 09:01:01;;;;;;;2.70;1.90;;;8.30;99.90;;;;;;5058313;28;20211;-78
2024/02/07 09:03:28;;;;;;;2.83;1.80;;;8.40;99.90;;;;;;5054999;28;20217;-77
2024/02/07 09:05:55;;;;;;;2.00;1.65;;;8.40;99.90;;;;;;5063329;28;20588;-76
2024/02/07 09:08:22;;;;;;;1.73;1.23;;;8.30;99.90;;;;;;5070860;28;20208;-77
2024/02/07 09:10:49;;;;;;;4.57;2.47;;;8.30;99.90;;;;;;5069612;28;20642;-77
2024/02/07 09:13:17;;;;;;;2.70;1.90;;;8.40;99.90;;;;;;5071340;28;20232;-77
2024/02/07 09:15:45;;;;;;;5.43;2.50;;;8.40;99.90;;;;;;5070522;28;20242;-77
2024/02/07 09:18:13;;;;;;;4.25;2.00;;;8.40;99.90;;;;;;5071566;28;20234;-76
2024/02/07 09:20:40;;;;;;;4.13;1.90;;;8.40;99.90;;;;;;5070116;28;20244;-76
2024/02/07 09:23:06;;;;;;;2.80;1.90;;;8.50;99.90;;;;;;5070502;28;20784;-75
2024/02/07 09:25:33;;;;;;;1.90;1.65;;;8.50;99.90;;;;;;5070530;28;20348;-75
2024/02/07 09:28:00;;;;;;;2.10;1.90;;;8.50;99.90;;;;;;5071003;28;20258;-75
2024/02/07 09:30:27;;;;;;;3.67;2.40;;;8.50;99.90;;;;;;5071325;28;20266;-75
2024/02/07 09:32:54;;;;;;;2.50;1.60;;;8.60;99.90;;;;;;5070563;28;20213;-76
2024/02/07 09:35:22;;;;;;;3.13;2.15;;;8.60;99.90;;;;;;5056603;28;20213;-75
2024/02/07 09:37:49;;;;;;;3.33;1.77;;;8.60;99.90;;;;;;5051245;28;20214;-77
2024/02/07 09:40:15;;;;;;;1.95;1.70;;;8.60;99.90;;;;;;5050108;28;20419;-76
2024/02/07 09:42:44;;;;;;;2.90;2.50;;;8.60;99.90;;;;;;5049325;28;20233;-77
2024/02/07 09:45:13;;;;;;;1.55;1.45;;;8.60;99.90;;;;;;5051888;28;20206;-76
2024/02/07 09:47:48;;;;;;;3.30;1.95;;;8.70;99.90;;;;;;5050776;28;20205;-75
2024/02/07 09:50:16;;;;;;;4.45;1.85;;;8.70;99.90;;;;;;5051715;28;20275;-76
2024/02/07 09:52:45;;;;;;;2.50;2.03;;;8.80;99.90;;;;;;5050977;28;20236;-74
2024/02/07 09:55:12;;;;;;;2.53;1.85;;;8.80;99.90;;;;;;5051737;28;20457;-75
2024/02/07 09:57:39;;;;;;;2.22;2.05;;;8.80;99.90;;;;;;5051122;28;20216;-74
2024/02/07 10:00:08;;;;;;;2.45;2.17;;;8.80;99.90;;;;;;5051525;28;20205;-73
2024/02/07 10:02:39;;;;;;;2.20;2.00;;;8.80;99.90;;;;;;5051378;28;20601;-76
2024/02/07 10:05:07;;;;;;;5.22;2.00;;;8.90;99.90;;;;;;5051819;28;20212;-74
2024/02/07 10:07:36;;;;;;;1.52;1.42;;;9.00;99.90;;;;;;5051325;28;20206;-75
2024/02/07 10:10:05;;;;;;;3.95;2.03;;;9.00;99.90;;;;;;5051793;28;20216;-74
2024/02/07 10:12:32;;;;;;;2.42;2.05;;;9.10;99.90;;;;;;5051477;28;20237;-75
2024/02/07 10:15:00;;;;;;;2.67;2.08;;;9.00;99.90;;;;;;5051458;28;20220;-75
2024/02/07 10:17:27;;;;;;;2.00;1.80;;;9.10;99.90;;;;;;5051649;28;20209;-74
2024/02/07 10:19:54;;;;;;;2.75;2.10;;;9.10;99.90;;;;;;5052157;28;20210;-75
2024/02/07 10:22:21;;;;;;;1.80;1.38;;;9.10;99.90;;;;;;5051676;28;20229;-75
2024/02/07 10:24:48;;;;;;;2.25;1.30;;;9.10;99.90;;;;;;5052200;28;20693;-75
2024/02/07 10:27:20;;;;;;;3.22;2.08;;;9.20;99.90;;;;;;5051839;28;20208;-75
2024/02/07 10:29:46;;;;;;;2.60;1.60;;;9.20;99.90;;;;;;5052180;28;20695;-75
2024/02/07 10:32:17;;;;;;;2.47;1.65;;;9.20;99.90;;;;;;5052011;28;20201;-75
2024/02/07 10:34:51;;;;;;;2.20;1.63;;;9.20;99.90;;;;;;5054128;28;20760;-77
2024/02/07 10:37:18;;;;;;;2.85;1.92;;;9.20;99.90;;;;;;5052076;28;20216;-75
2024/02/07 10:39:45;;;;;;;1.40;1.30;;;9.20;99.90;;;;;;5052612;28;20220;-75
2024/02/07 10:42:12;;;;;;;1.63;1.52;;;9.30;99.90;;;;;;5052125;28;20263;-75
2024/02/07 10:44:40;;;;;;;3.47;1.52;;;9.30;99.90;;;;;;5053271;28;20228;-75
2024/02/07 10:47:09;;;;;;;1.92;1.63;;;9.40;99.90;;;;;;5045240;28;20216;-76
2024/02/07 10:49:36;;;;;;;2.70;1.60;;;9.40;99.90;;;;;;5046274;28;20584;-76
2024/02/07 10:52:03;;;;;;;1.98;1.20;;;9.30;99.90;;;;;;5051950;28;20209;-75
2024/02/07 10:54:30;;;;;;;2.03;1.50;;;9.20;99.90;;;;;;5052705;28;20208;-76
2024/02/07 10:56:57;;;;;;;1.73;1.60;;;9.20;99.90;;;;;;5051885;28;20208;-75
2024/02/07 10:59:25;;;;;;;2.72;1.83;;;9.20;99.90;;;;;;5053049;28;20599;-79
2024/02/07 11:01:54;;;;;;;1.65;1.55;;;9.30;99.90;;;;;;5054585;28;20216;-76
2024/02/07 11:04:21;;;;;;;1.55;1.30;;;9.30;99.90;;;;;;5052899;28;20230;-74
2024/02/07 11:06:49;;;;;;;3.67;1.77;;;9.40;99.90;;;;;;5053415;28;20228;-75
2024/02/07 11:09:16;;;;;;;3.38;1.77;;;9.40;99.90;;;;;;5052794;28;20215;-74
2024/02/07 11:11:44;;;;;;;2.33;1.50;;;9.40;99.90;;;;;;5055916;28;20210;-74
2024/02/07 11:14:12;;;;;;;5.47;1.80;;;9.40;99.90;;;;;;5052725;28;20233;-75
2024/02/07 11:16:39;;;;;;;1.70;1.38;;;9.40;99.90;;;;;;5053592;28;20214;-75
2024/02/07 11:19:07;;;;;;;2.05;1.70;;;9.40;99.90;;;;;;5053086;28;20704;-75
2024/02/07 11:21:38;;;;;;;2.28;1.67;;;9.30;99.90;;;;;;5057428;28;20209;-75
2024/02/07 11:24:07;;;;;;;4.82;1.60;;;9.30;99.90;;;;;;5056726;28;20221;-76
2024/02/07 11:26:34;;;;;;;1.60;1.50;;;9.20;99.90;;;;;;5057182;28;20690;-75
2024/02/07 11:29:03;;;;;;;1.75;1.30;;;9.20;99.90;;;;;;5057154;28;20216;-74
2024/02/07 11:31:30;;;;;;;2.38;2.05;;;9.30;99.90;;;;;;5057082;28;20213;-74
2024/02/07 11:33:57;;;;;;;2.97;1.77;;;9.30;99.90;;;;;;5056503;28;20842;-74
2024/02/07 11:36:28;;;;;;;1.80;1.40;;;9.20;99.90;;;;;;5056629;28;20689;-76
2024/02/07 11:38:56;;;;;;;2.70;1.85;;;9.30;99.90;;;;;;5057985;28;20208;-74
2024/02/07 11:41:23;;;;;;;1.45;1.35;;;9.30;99.90;;;;;;5056909;28;20594;-73
2024/02/07 11:43:51;;;;;;;2.08;1.40;;;9.40;99.90;;;;;;5058302;28;20286;-74
2024/02/07 11:46:18;;;;;;;2.25;1.80;;;9.40;99.90;;;;;;5057273;28;20260;-74
2024/02/07 11:48:51;;;;;;;1.70;1.40;;;9.40;99.90;;;;;;5058655;28;20540;-73
2024/02/07 11:51:18;;;;;;;1.88;1.38;;;9.50;99.90;;;;;;5056953;28;20666;-74
2024/02/07 11:53:46;;;;;;;3.15;1.23;;;9.50;99.90;;;;;;5058653;28;20233;-73
2024/02/07 11:56:14;;;;;;;4.45;2.30;;;9.50;99.90;;;;;;5056661;28;20206;-73
2024/02/07 11:58:43;;;;;;;3.53;1.88;;;9.50;99.90;;;;;;5058264;28;20202;-75
2024/02/07 12:01:11;;;;;;;3.53;1.88;;;9.50;99.90;;;;;;5056873;28;20580;-73
2024/02/07 12:03:38;;;;;;;2.17;1.95;;;9.60;99.90;;;;;;5057686;28;20222;-75
2024/02/07 12:06:09;;;;;;;1.83;1.20;;;9.60;99.90;;;;;;5057122;28;20205;-74
2024/02/07 12:08:36;;;;;;;1.75;1.30;;;9.70;99.90;;;;;;5057752;28;20202;-74
2024/02/07 12:11:05;;;;;;;1.45;1.35;;;9.70;99.90;;;;;;5060836;28;20216;-74
2024/02/07 12:13:33;;;;;;;1.33;1.10;;;9.70;99.90;;;;;;5055298;28;20287;-74
2024/02/07 12:16:01;;;;;;;1.88;1.65;;;9.70;99.90;;;;;;5066024;28;20197;-74
2024/02/07 12:18:28;;;;;;;1.30;1.20;;;9.80;99.90;;;;;;5073091;28;20201;-73
2024/02/07 12:21:00;;;;;;;1.23;1.13;;;9.80;99.90;;;;;;5072471;28;20205;-73
2024/02/07 12:23:26;;;;;;;1.80;1.17;;;9.80;99.90;;;;;;5072958;28;20220;-74
2024/02/07 12:25:57;;;;;;;1.30;1.15;;;9.90;99.90;;;;;;5072216;28;20665;-74
2024/02/07 12:28:26;;;;;;;1.52;1.33;;;10.00;99.90;;;;;;5072884;28;20208;-74
2024/02/07 12:30:55;;;;;;;1.40;1.27;;;10.00;99.90;;;;;;5055435;28;20220;-74
2024/02/07 12:33:21;;;;;;;1.10;1.00;;;10.00;99.90;;;;;;5075204;28;20213;-75
2024/02/07 12:35:50;;;;;;;2.13;1.55;;;9.90;99.90;;;;;;5073784;28;20203;-75
2024/02/07 12:38:17;;;;;;;1.95;1.50;;;9.90;99.90;;;;;;5059124;28;20739;-75
2024/02/07 12:40:46;;;;;;;1.40;1.30;;;10.00;99.90;;;;;;5072592;28;20202;-76
2024/02/07 12:43:12;;;;;;;1.85;1.20;;;10.00;99.90;;;;;;5072340;28;20631;-76
2024/02/07 12:45:40;;;;;;;1.58;1.40;;;9.90;99.90;;;;;;5076866;28;20202;-77
2024/02/07 12:48:08;;;;;;;2.85;1.25;;;9.80;99.90;;;;;;5073808;28;20684;-77
2024/02/07 12:50:34;;;;;;;1.50;1.30;;;9.80;99.90;;;;;;5072997;28;20680;-77
2024/02/07 12:53:01;;;;;;;1.60;1.50;;;9.80;99.90;;;;;;5072593;28;20225;-76
2024/02/07 12:55:28;;;;;;;1.35;1.25;;;9.80;99.90;;;;;;5072588;28;20211;-76
2024/02/07 12:58:01;;;;;;;1.13;0.93;;;9.80;99.90;;;;;;5066488;28;20569;-76
2024/02/07 13:00:28;;;;;;;1.90;1.58;;;9.80;99.90;;;;;;5064542;28;20201;-76
2024/02/07 13:02:56;;;;;;;1.65;1.55;;;9.80;99.90;;;;;;5071663;28;20225;-76
2024/02/07 13:05:22;;;;;;;2.28;1.30;;;9.90;99.90;;;;;;5072841;28;20249;-76
2024/02/07 13:07:50;;;;;;;2.42;2.22;;;9.90;99.90;;;;;;5073427;28;20216;-77
2024/02/07 13:10:16;;;;;;;1.40;1.30;;;9.90;99.90;;;;;;5079742;28;20558;-78
2024/02/07 13:12:43;;;;;;;1.20;1.02;;;9.90;99.90;;;;;;5082231;28;20608;-79
2024/02/07 13:15:16;;;;;;;1.63;1.33;;;9.90;99.90;;;;;;5079750;28;20213;-77
2024/02/07 13:17:43;;;;;;;1.38;1.27;;;9.90;99.90;;;;;;5076038;28;20229;-78
2024/02/07 13:20:12;;;;;;;2.42;1.33;;;9.90;99.90;;;;;;5064498;28;20208;-77
2024/02/07 13:22:39;;;;;;;1.52;1.40;;;9.90;99.90;;;;;;5056375;28;20258;-78
2024/02/07 13:25:10;;;;;;;1.40;1.30;;;9.90;99.90;;;;;;5080949;28;20221;-78
2024/02/07 13:27:37;;;;;;;2.03;1.20;;;9.90;99.90;;;;;;5070602;28;20201;-76
2024/02/07 13:30:05;;;;;;;1.48;1.17;;;9.90;99.90;;;;;;5073462;28;20202;-76
2024/02/07 13:32:32;;;;;;;1.60;1.50;;;9.90;99.90;;;;;;5052462;28;20222;-76
2024/02/07 13:34:59;;;;;;;2.17;1.38;;;10.00;99.90;;;;;;5062472;28;20200;-75
2024/02/07 13:37:27;;;;;;;2.20;1.60;;;10.00;99.90;;;;;;5069356;28;20203;-75
2024/02/07 13:39:54;;;;;;;1.75;1.40;;;10.00;99.90;;;;;;5068495;28;20203;-75
2024/02/07 13:42:21;;;;;;;1.95;1.10;;;10.00;99.90;;;;;;5055746;28;20233;-74
2024/02/07 13:44:48;;;;;;;3.35;1.23;;;10.10;99.90;;;;;;5064468;28;20309;-75
2024/02/07 13:47:16;;;;;;;2.30;1.10;;;10.10;99.90;;;;;;5069275;28;20209;-75
2024/02/07 13:49:42;;;;;;;1.95;1.30;;;10.20;99.90;;;;;;5069319;28;20204;-75
2024/02/07 13:52:09;;;;;;;1.10;1.00;;;10.10;99.90;;;;;;5071108;28;20579;-76
2024/02/07 13:54:37;;;;;;;1.55;1.20;;;10.10;99.90;;;;;;5072008;28;20210;-76
2024/02/07 13:57:04;;;;;;;1.20;1.00;;;10.10;99.90;;;;;;5054215;28;20206;-76
2024/02/07 13:59:31;;;;;;;1.80;1.38;;;10.10;99.90;;;;;;5068037;28;20201;-75
2024/02/07 14:01:59;;;;;;;1.25;1.02;;;10.00;99.90;;;;;;5064403;28;20205;-74
2024/02/07 14:04:26;;;;;;;1.30;1.20;;;9.90;99.90;;;;;;5066682;28;20250;-75